createdAt,value
2023-05-23T00:00:54.105Z,28.10
2023-05-23T00:03:23.002Z,26.23
2023-05-23T00:05:51.529Z,27.25
2023-05-23T00:08:19.787Z,27.45
2023-05-23T00:10:49.162Z,25.02
2023-05-23T00:13:17.580Z,29.45
2023-05-23T00:15:48.978Z,28.95
2023-05-23T00:18:17.402Z,27.90
2023-05-23T00:20:46.926Z,28.83
2023-05-23T00:25:52.471Z,26.45
2023-05-23T00:28:21.360Z,28.80
2023-05-23T00:30:50.117Z,28.15
2023-05-23T00:33:22.604Z,29.70
2023-05-23T00:35:50.482Z,29.42
2023-05-23T00:38:18.494Z,29.48
2023-05-23T00:40:47.033Z,29.98
2023-05-23T00:43:16.186Z,29.77
2023-05-23T00:45:43.985Z,28.58
2023-05-23T00:48:12.811Z,28.85
2023-05-23T00:50:41.263Z,28.27
2023-05-23T00:53:09.127Z,28.45
2023-05-23T00:55:37.548Z,30.15
2023-05-23T00:58:05.603Z,27.35
2023-05-23T01:00:35.809Z,26.02
2023-05-23T01:03:05.635Z,26.33
2023-05-23T01:05:33.474Z,25.73
2023-05-23T01:08:03.261Z,24.77
2023-05-23T01:13:30.134Z,24.27
2023-05-23T01:16:07.253Z,24.77
2023-05-23T01:18:41.934Z,24.02
2023-05-23T01:21:15.090Z,23.13
2023-05-23T01:24:04.037Z,24.67
2023-05-23T01:26:48.292Z,24.92
2023-05-23T01:29:24.269Z,28.90
2023-05-23T01:31:55.699Z,28.50
2023-05-23T01:34:24.562Z,28.10
2023-05-23T01:36:56.300Z,29.35
2023-05-23T01:39:25.426Z,30.30
2023-05-23T01:41:54.705Z,28.85
2023-05-23T01:44:24.125Z,29.48
2023-05-23T01:46:52.529Z,27.85
2023-05-23T01:49:23.670Z,27.25
2023-05-23T01:51:51.526Z,24.42
2023-05-23T01:54:21.224Z,25.42
2023-05-23T01:56:49.487Z,25.17
2023-05-23T01:59:17.327Z,23.23
2023-05-23T02:01:47.302Z,23.38
2023-05-23T02:04:15.761Z,24.88
2023-05-23T02:06:43.590Z,22.92
2023-05-23T02:09:11.792Z,24.65
2023-05-23T02:11:39.549Z,21.92
2023-05-23T02:14:08.284Z,22.77
2023-05-23T02:16:36.989Z,23.03
2023-05-23T02:19:06.451Z,22.83
2023-05-23T02:21:35.485Z,22.90
2023-05-23T02:24:04.028Z,23.38
2023-05-23T02:26:31.842Z,22.83
2023-05-23T02:28:59.604Z,22.35
2023-05-23T02:31:28.292Z,22.35
2023-05-23T02:33:56.198Z,22.23
2023-05-23T02:36:25.351Z,22.17
2023-05-23T02:38:53.722Z,21.33
2023-05-23T02:41:21.532Z,23.40
2023-05-23T02:43:49.301Z,23.40
2023-05-23T02:46:17.561Z,23.38
2023-05-23T02:48:45.664Z,22.02
2023-05-23T02:51:14.181Z,22.45
2023-05-23T02:53:43.813Z,21.30
2023-05-23T02:58:39.998Z,19.48
2023-05-23T03:01:08.752Z,19.75
2023-05-23T03:03:36.684Z,18.10
2023-05-23T03:06:06.266Z,17.80
2023-05-23T03:08:34.536Z,18.35
2023-05-23T03:11:03.741Z,17.10
2023-05-23T03:13:31.651Z,18.40
2023-05-23T03:16:00.061Z,17.88
2023-05-23T03:18:27.875Z,17.67
2023-05-23T03:20:55.598Z,18.60
2023-05-23T03:23:23.890Z,18.45
2023-05-23T03:25:51.669Z,19.30
2023-05-23T03:28:20.757Z,20.40
2023-05-23T03:30:49.062Z,21.42
2023-05-23T03:33:17.043Z,20.58
2023-05-23T03:35:44.781Z,24.17
2023-05-23T03:38:13.091Z,25.02
2023-05-23T03:40:40.824Z,23.92
2023-05-23T03:43:09.537Z,24.73
2023-05-23T03:45:39.420Z,22.47
2023-05-23T03:48:07.367Z,24.58
2023-05-23T03:50:35.148Z,26.85
2023-05-23T03:53:03.444Z,26.92
2023-05-23T03:55:33.058Z,27.42
2023-05-23T04:00:29.182Z,28.08
2023-05-23T04:02:58.397Z,30.17
2023-05-23T04:05:26.285Z,29.77
2023-05-23T04:07:54.547Z,29.48
2023-05-23T04:10:22.284Z,27.23
2023-05-23T04:12:50.019Z,26.08
2023-05-23T04:15:18.209Z,21.80
2023-05-23T04:17:46.023Z,20.67
2023-05-23T04:20:15.171Z,17.63
2023-05-23T04:22:43.674Z,15.93
2023-05-23T04:25:11.608Z,16.08
2023-05-23T04:27:40.623Z,14.82
2023-05-23T04:32:38.986Z,13.40
2023-05-23T04:35:07.550Z,12.67
2023-05-23T04:37:38.198Z,12.47
2023-05-23T04:40:07.216Z,12.20
2023-05-23T04:42:36.077Z,12.13
2023-05-23T04:45:04.609Z,11.95
2023-05-23T04:47:36.978Z,12.10
2023-05-23T04:50:06.063Z,11.20
2023-05-23T04:52:34.394Z,11.37
2023-05-23T04:55:04.201Z,10.68
2023-05-23T04:57:32.874Z,11.10
2023-05-23T05:00:01.189Z,11.55
2023-05-23T05:02:34.023Z,11.57
2023-05-23T05:05:01.829Z,11.27
2023-05-23T05:07:30.363Z,11.48
2023-05-23T05:10:00.875Z,11.00
2023-05-23T05:12:30.411Z,10.75
2023-05-23T05:14:58.189Z,10.77
2023-05-23T05:17:26.239Z,11.35
2023-05-23T05:19:54.036Z,11.20
2023-05-23T05:22:21.817Z,10.48
2023-05-23T05:24:50.095Z,15.25
2023-05-23T05:27:17.915Z,19.23
2023-05-23T05:29:48.124Z,17.95
2023-05-23T05:32:16.938Z,16.88
2023-05-23T05:34:46.430Z,17.58
2023-05-23T05:37:15.533Z,16.50
2023-05-23T05:39:43.915Z,17.55
2023-05-23T05:42:11.659Z,17.70
2023-05-23T05:44:39.413Z,17.02
2023-05-23T05:47:09.062Z,15.80
2023-05-23T05:52:04.502Z,14.57
2023-05-23T05:54:32.288Z,15.48
2023-05-23T05:57:00.123Z,13.98
2023-05-23T05:59:28.486Z,14.52
2023-05-23T06:01:57.701Z,13.80
2023-05-23T06:04:26.869Z,14.27
2023-05-23T06:06:54.660Z,14.48
2023-05-23T06:09:22.628Z,14.30
2023-05-23T06:11:50.406Z,14.88
2023-05-23T06:14:18.277Z,15.43
2023-05-23T06:16:46.800Z,14.93
2023-05-23T06:19:14.727Z,14.63
2023-05-23T06:21:43.853Z,16.50
2023-05-23T06:24:11.963Z,14.85
2023-05-23T06:26:39.706Z,15.95
2023-05-23T06:29:07.457Z,15.73
2023-05-23T06:31:35.710Z,16.25
2023-05-23T06:34:03.573Z,17.15
2023-05-23T06:36:31.907Z,14.90
2023-05-23T06:39:01.210Z,15.75
2023-05-23T06:41:29.037Z,15.20
2023-05-23T06:43:56.799Z,16.42
2023-05-23T06:46:25.518Z,16.75
2023-05-23T06:49:02.727Z,16.73
2023-05-23T06:51:41.512Z,16.02
2023-05-23T06:54:11.534Z,15.98
2023-05-23T06:56:39.312Z,14.40
2023-05-23T06:59:07.130Z,14.43
2023-05-23T07:01:34.958Z,13.25
2023-05-23T07:04:02.806Z,12.63
2023-05-23T07:06:31.519Z,11.65
2023-05-23T07:08:59.364Z,11.27
2023-05-23T07:11:28.584Z,10.88
2023-05-23T07:13:56.396Z,9.60
2023-05-23T07:16:24.296Z,10.18
2023-05-23T07:18:52.510Z,9.13
2023-05-23T07:21:20.467Z,8.40
2023-05-23T07:23:48.225Z,8.10
2023-05-23T07:26:16.154Z,7.18
2023-05-23T07:28:45.623Z,6.57
2023-05-23T07:31:13.513Z,6.82
2023-05-23T07:33:41.564Z,8.10
2023-05-23T07:36:10.030Z,9.38
2023-05-23T07:38:37.821Z,9.93
2023-05-23T07:41:11.563Z,10.48
2023-05-23T07:43:40.288Z,10.07
2023-05-23T07:46:09.543Z,10.00
2023-05-23T07:48:37.619Z,8.27
2023-05-23T07:51:06.043Z,9.00
2023-05-23T07:53:33.871Z,8.30
2023-05-23T07:56:02.684Z,7.90
2023-05-23T07:58:30.499Z,7.57
2023-05-23T08:00:59.578Z,7.03
2023-05-23T08:03:29.079Z,6.88
2023-05-23T08:05:56.851Z,7.40
2023-05-23T08:08:24.667Z,8.00
2023-05-23T08:10:52.817Z,7.38
2023-05-23T08:13:20.630Z,7.70
2023-05-23T08:15:48.449Z,8.38
2023-05-23T08:18:16.814Z,7.68
2023-05-23T08:20:46.255Z,9.13
2023-05-23T08:23:14.280Z,9.55
2023-05-23T08:25:42.369Z,9.32
2023-05-23T08:28:10.217Z,9.82
2023-05-23T08:30:38.095Z,9.65
2023-05-23T08:33:07.521Z,10.18
2023-05-23T08:35:36.520Z,10.63
2023-05-23T08:38:09.185Z,10.68
2023-05-23T08:40:38.032Z,10.10
2023-05-23T08:43:06.164Z,9.13
2023-05-23T08:45:34.903Z,9.65
2023-05-23T08:48:04.442Z,9.20
2023-05-23T08:50:32.881Z,10.07
2023-05-23T08:53:01.365Z,9.60
2023-05-23T08:55:31.105Z,9.45
2023-05-23T08:58:00.458Z,9.45
2023-05-23T09:00:29.519Z,9.02
2023-05-23T09:02:58.264Z,8.77
2023-05-23T09:05:27.647Z,8.93
2023-05-23T09:07:57.023Z,8.32
2023-05-23T09:10:24.912Z,8.13
2023-05-23T09:12:54.080Z,8.13
2023-05-23T09:15:22.587Z,7.95
2023-05-23T09:17:50.491Z,7.70
2023-05-23T09:20:19.381Z,7.22
2023-05-23T09:22:48.358Z,7.80
2023-05-23T09:25:16.721Z,8.73
2023-05-23T09:27:47.790Z,8.55
2023-05-23T09:30:19.793Z,7.68
2023-05-23T09:33:03.943Z,7.38
2023-05-23T09:35:33.572Z,7.68
2023-05-23T09:38:01.732Z,7.15
2023-05-23T09:40:33.994Z,6.63
2023-05-23T09:43:04.277Z,6.85
2023-05-23T09:45:34.976Z,6.75
2023-05-23T09:48:02.891Z,6.78
2023-05-23T09:50:34.177Z,6.22
2023-05-23T09:53:02.680Z,6.55
2023-05-23T09:55:30.468Z,5.63
2023-05-23T09:58:00.803Z,6.18
2023-05-23T10:00:29.969Z,5.80
2023-05-23T10:03:10.797Z,5.28
2023-05-23T10:05:42.857Z,5.72
2023-05-23T10:08:15.234Z,5.72
2023-05-23T10:11:34.887Z,5.10
2023-05-23T10:14:04.676Z,5.45
2023-05-23T10:16:40.551Z,9.18
2023-05-23T10:19:18.650Z,8.48
2023-05-23T10:21:51.714Z,8.60
2023-05-23T10:24:20.690Z,8.23
2023-05-23T10:26:49.861Z,7.72
2023-05-23T10:29:17.969Z,6.97
2023-05-23T10:31:46.479Z,6.60
2023-05-23T10:34:25.278Z,6.28
2023-05-23T10:37:00.264Z,5.28
2023-05-23T10:39:50.677Z,5.97
2023-05-23T10:42:25.073Z,5.80
2023-05-23T10:44:52.921Z,5.03
2023-05-23T10:47:31.107Z,4.90
2023-05-23T10:50:02.501Z,4.50
2023-05-23T10:52:40.997Z,4.63
2023-05-23T10:55:14.872Z,4.05
2023-05-23T10:57:43.910Z,4.05
2023-05-23T11:00:16.644Z,3.80
2023-05-23T11:02:56.435Z,3.30
2023-05-23T11:05:28.565Z,3.70
2023-05-23T11:08:10.377Z,3.53
2023-05-23T11:10:57.622Z,3.60
2023-05-23T11:13:25.513Z,3.70
2023-05-23T11:15:53.554Z,3.60
2023-05-23T11:18:23.319Z,3.45
2023-05-23T11:20:54.679Z,3.00
2023-05-23T11:23:23.935Z,3.03
2023-05-23T11:25:53.941Z,3.08
2023-05-23T11:28:22.051Z,3.35
2023-05-23T11:30:51.066Z,3.33
2023-05-23T11:33:20.810Z,3.15
2023-05-23T11:35:51.634Z,3.53
2023-05-23T11:38:21.177Z,3.90
2023-05-23T11:43:19.514Z,3.80
2023-05-23T11:45:47.756Z,3.97
2023-05-23T11:48:17.004Z,4.47
2023-05-23T11:50:47.165Z,4.22
2023-05-23T11:53:17.512Z,4.07
2023-05-23T11:55:53.446Z,3.90
2023-05-23T11:58:22.836Z,3.70
2023-05-23T12:00:51.742Z,3.65
2023-05-23T12:03:22.143Z,3.83
2023-05-23T12:05:50.250Z,3.97
2023-05-23T12:08:18.036Z,3.90
2023-05-23T12:10:55.362Z,3.97
2023-05-23T12:13:26.209Z,4.85
2023-05-23T12:15:58.859Z,3.72
2023-05-23T12:18:29.695Z,4.03
2023-05-23T12:21:01.348Z,4.57
2023-05-23T12:23:31.824Z,3.78
2023-05-23T12:26:07.454Z,3.75
2023-05-23T12:28:37.239Z,4.13
2023-05-23T12:33:41.318Z,3.28
2023-05-23T12:36:09.187Z,3.75
2023-05-23T12:38:40.820Z,3.67
2023-05-23T12:41:16.740Z,4.18
2023-05-23T12:43:51.564Z,4.50
2023-05-23T12:46:19.372Z,4.22
2023-05-23T12:48:47.380Z,3.70
2023-05-23T12:51:15.466Z,4.50
2023-05-23T12:53:43.294Z,4.55
2023-05-23T12:56:11.144Z,3.63
2023-05-23T12:58:40.397Z,4.30
2023-05-23T13:01:08.201Z,4.22
2023-05-23T13:03:36.625Z,3.17
2023-05-23T13:06:04.897Z,4.03
2023-05-23T13:08:32.857Z,3.58
2023-05-23T13:11:00.759Z,4.10
2023-05-23T13:13:29.016Z,3.90
2023-05-23T13:15:58.604Z,4.55
2023-05-23T13:20:54.864Z,4.43
2023-05-23T13:23:22.753Z,4.10
2023-05-23T13:25:51.273Z,4.38
2023-05-23T13:28:19.297Z,4.20
2023-05-23T13:30:47.595Z,4.15
2023-05-23T13:33:17.171Z,4.80
2023-05-23T13:35:45.471Z,3.90
2023-05-23T13:38:13.255Z,4.13
2023-05-23T13:40:41.384Z,4.35
2023-05-23T13:43:09.805Z,3.33
2023-05-23T13:45:37.643Z,4.57
2023-05-23T13:48:05.856Z,4.35
2023-05-23T13:50:35.629Z,4.15
2023-05-23T13:53:03.826Z,4.10
2023-05-23T13:55:31.632Z,4.40
2023-05-23T13:57:59.472Z,5.22
2023-05-23T14:00:27.268Z,4.90
2023-05-23T14:02:55.308Z,4.57
2023-05-23T14:05:23.849Z,4.65
2023-05-23T14:07:53.240Z,4.63
2023-05-23T14:10:21.127Z,4.38
2023-05-23T14:12:49.288Z,4.93
2023-05-23T14:15:17.672Z,4.70
2023-05-23T14:17:45.469Z,5.15
2023-05-23T14:20:13.949Z,9.45
2023-05-23T14:22:42.069Z,5.93
2023-05-23T14:25:11.550Z,5.35
2023-05-23T14:27:40.433Z,6.05
2023-05-23T14:30:09.565Z,5.15
2023-05-23T14:32:39.145Z,8.68
2023-05-23T14:35:08.294Z,4.45
2023-05-23T14:37:36.656Z,4.78
2023-05-23T14:40:04.703Z,5.55
2023-05-23T14:42:34.325Z,10.30
2023-05-23T14:47:29.804Z,4.15
2023-05-23T14:49:57.794Z,5.68
2023-05-23T14:52:25.685Z,4.43
2023-05-23T14:54:53.481Z,4.07
2023-05-23T14:57:21.309Z,4.22
2023-05-23T14:59:50.479Z,4.38
2023-05-23T15:02:18.275Z,4.68
2023-05-23T15:04:46.674Z,4.90
2023-05-23T15:07:14.847Z,4.80
2023-05-23T15:09:42.578Z,3.85
2023-05-23T15:12:10.754Z,3.92
2023-05-23T15:14:38.484Z,4.15
2023-05-23T15:17:08.686Z,4.75
2023-05-23T15:19:37.156Z,3.78
2023-05-23T15:22:05.539Z,4.27
2023-05-23T15:24:34.975Z,3.83
2023-05-23T15:29:48.239Z,3.50
2023-05-23T15:32:17.543Z,3.95
2023-05-23T15:34:45.285Z,3.85
2023-05-23T15:37:13.009Z,3.75
2023-05-23T15:39:40.872Z,3.50
2023-05-23T15:42:09.028Z,3.65
2023-05-23T15:44:36.828Z,3.88
2023-05-23T15:47:05.217Z,3.50
2023-05-23T15:49:34.301Z,4.03
2023-05-23T15:52:02.058Z,3.88
2023-05-23T15:54:29.947Z,3.47
2023-05-23T15:56:57.699Z,4.10
2023-05-23T15:59:25.445Z,3.80
2023-05-23T16:01:53.370Z,3.67
2023-05-23T16:04:21.162Z,3.65
2023-05-23T16:06:50.315Z,3.28
2023-05-23T16:09:18.295Z,4.18
2023-05-23T16:11:46.040Z,3.65
2023-05-23T16:14:13.798Z,3.47
2023-05-23T16:16:41.954Z,3.67
2023-05-23T16:19:09.901Z,3.63
2023-05-23T16:21:37.657Z,4.10
2023-05-23T16:24:07.520Z,4.10
2023-05-23T16:26:35.371Z,3.80
2023-05-23T16:29:03.130Z,3.70
2023-05-23T16:31:31.415Z,3.80
2023-05-23T16:33:59.637Z,3.60
2023-05-23T16:36:27.368Z,3.45
2023-05-23T16:38:55.862Z,3.75
2023-05-23T16:41:25.205Z,4.13
2023-05-23T16:43:53.081Z,3.53
2023-05-23T16:46:22.484Z,3.83
2023-05-23T16:48:50.402Z,3.78
2023-05-23T16:51:18.408Z,3.38
2023-05-23T16:53:46.436Z,3.72
2023-05-23T16:56:14.168Z,2.90
2023-05-23T16:58:43.301Z,3.50
2023-05-23T17:01:11.195Z,3.17
2023-05-23T17:03:41.239Z,3.65
2023-05-23T17:06:09.167Z,3.35
2023-05-23T17:08:37.059Z,3.95
2023-05-23T17:11:04.902Z,3.65
2023-05-23T17:13:33.062Z,3.45
2023-05-23T17:16:02.434Z,3.10
2023-05-23T17:18:30.296Z,3.17
2023-05-23T17:20:58.257Z,3.63
2023-05-23T17:23:26.383Z,3.70
2023-05-23T17:25:55.099Z,3.25
2023-05-23T17:28:23.437Z,3.60
2023-05-23T17:30:53.325Z,3.20
2023-05-23T17:33:22.496Z,3.03
2023-05-23T17:35:50.232Z,3.35
2023-05-23T17:38:18.148Z,3.97
2023-05-23T17:40:46.146Z,3.38
2023-05-23T17:43:14.081Z,3.05
2023-05-23T17:45:41.983Z,3.00
2023-05-23T17:48:09.781Z,3.28
2023-05-23T17:50:39.140Z,3.80
2023-05-23T17:53:06.901Z,3.60
2023-05-23T17:55:34.634Z,4.80
2023-05-23T17:58:02.411Z,3.50
2023-05-23T18:00:30.500Z,3.67
2023-05-23T18:02:58.287Z,3.70
2023-05-23T18:05:26.422Z,3.65
2023-05-23T18:07:55.541Z,4.47
2023-05-23T18:10:24.412Z,3.65
2023-05-23T18:12:52.431Z,3.90
2023-05-23T18:15:20.472Z,3.72
2023-05-23T18:17:48.442Z,4.35
2023-05-23T18:20:16.665Z,3.22
2023-05-23T18:22:44.470Z,3.63
2023-05-23T18:25:19.651Z,6.38
2023-05-23T18:27:47.409Z,5.13
2023-05-23T18:30:15.489Z,3.78
2023-05-23T18:32:43.806Z,3.30
2023-05-23T18:35:11.688Z,3.08
2023-05-23T18:37:39.920Z,3.10
2023-05-23T18:40:09.942Z,3.40
2023-05-23T18:42:39.097Z,4.05
2023-05-23T18:45:08.161Z,3.80
2023-05-23T18:47:36.657Z,3.30
2023-05-23T18:50:05.177Z,3.03
2023-05-23T18:52:37.254Z,3.22
2023-05-23T18:55:05.727Z,3.13
2023-05-23T18:57:33.585Z,3.95
2023-05-23T19:00:03.673Z,3.22
2023-05-23T19:02:31.624Z,3.95
2023-05-23T19:04:59.505Z,3.25
2023-05-23T19:07:27.575Z,4.05
2023-05-23T19:09:55.594Z,3.42
2023-05-23T19:12:23.713Z,3.13
2023-05-23T19:14:52.314Z,3.53
2023-05-23T19:17:21.571Z,3.03
2023-05-23T19:19:49.499Z,3.15
2023-05-23T19:22:17.741Z,3.38
2023-05-23T19:24:45.558Z,3.08
2023-05-23T19:27:14.851Z,3.00
2023-05-23T19:29:43.626Z,3.40
2023-05-23T19:32:11.504Z,3.23
2023-05-23T19:34:40.939Z,3.70
2023-05-23T19:37:11.738Z,3.60
2023-05-23T19:39:42.757Z,3.28
2023-05-23T19:42:10.612Z,2.80
2023-05-23T19:44:38.670Z,3.47
2023-05-23T19:47:07.728Z,2.92
2023-05-23T19:49:35.886Z,3.22
2023-05-23T19:52:05.524Z,3.50
2023-05-23T19:57:01.165Z,2.75
2023-05-23T19:59:29.399Z,3.53
2023-05-23T20:01:57.303Z,3.35
2023-05-23T20:04:25.312Z,3.40
2023-05-23T20:06:54.002Z,3.75
2023-05-23T20:09:23.688Z,3.00
2023-05-23T20:14:19.612Z,3.50
2023-05-23T20:16:48.345Z,3.00
2023-05-23T20:19:16.292Z,4.28
2023-05-23T20:21:44.505Z,3.88
2023-05-23T20:24:14.849Z,6.57
2023-05-23T20:26:44.343Z,4.95
2023-05-23T20:29:12.200Z,3.92
2023-05-23T20:31:40.147Z,3.40
2023-05-23T20:34:08.303Z,2.88
2023-05-23T20:36:37.098Z,3.38
2023-05-23T20:39:06.277Z,3.55
2023-05-23T20:41:34.413Z,3.30
2023-05-23T20:44:03.595Z,3.65
2023-05-23T20:46:32.157Z,3.30
2023-05-23T20:49:01.540Z,2.92
2023-05-23T20:51:29.580Z,3.65
2023-05-23T20:53:57.653Z,3.28
2023-05-23T20:56:27.243Z,2.88
2023-05-23T21:01:24.956Z,2.92
2023-05-23T21:03:53.482Z,3.47
2023-05-23T21:06:21.348Z,3.28
2023-05-23T21:08:49.444Z,2.95
2023-05-23T21:11:17.560Z,2.97
2023-05-23T21:13:45.648Z,3.00
2023-05-23T21:16:14.641Z,3.22
2023-05-23T21:18:44.239Z,3.00
2023-05-23T21:21:12.084Z,3.40
2023-05-23T21:23:40.046Z,3.33
2023-05-23T21:26:08.261Z,2.90
2023-05-23T21:28:36.183Z,3.45
2023-05-23T21:31:04.783Z,2.72
2023-05-23T21:33:33.426Z,3.22
2023-05-23T21:36:02.926Z,2.95
2023-05-23T21:38:31.303Z,3.40
2023-05-23T21:40:59.517Z,2.90
2023-05-23T21:43:27.611Z,2.70
2023-05-23T21:45:55.701Z,2.97
2023-05-23T21:48:23.519Z,3.15
2023-05-23T21:50:51.491Z,3.58
2023-05-23T21:53:21.242Z,3.47
2023-05-23T21:55:49.155Z,3.03
2023-05-23T21:58:17.062Z,3.33
2023-05-23T22:00:46.008Z,2.58
2023-05-23T22:03:14.105Z,3.17
2023-05-23T22:05:42.022Z,2.90
2023-05-23T22:08:10.218Z,3.00
2023-05-23T22:10:40.544Z,2.83
2023-05-23T22:13:09.548Z,3.25
2023-05-23T22:15:38.025Z,2.93
2023-05-23T22:18:06.528Z,3.13
2023-05-23T22:20:38.707Z,2.90
2023-05-23T22:23:07.444Z,3.08
2023-05-23T22:25:35.323Z,3.00
2023-05-23T22:28:05.154Z,3.17
2023-05-23T22:30:32.958Z,2.95
2023-05-23T22:33:01.856Z,3.10
2023-05-23T22:35:30.254Z,3.47
2023-05-23T22:37:58.061Z,2.70
2023-05-23T22:40:25.904Z,2.78
2023-05-23T22:42:54.201Z,3.05
2023-05-23T22:45:23.523Z,3.42
2023-05-23T22:47:54.413Z,3.08
2023-05-23T22:50:22.916Z,4.30
2023-05-23T22:52:50.791Z,3.13
2023-05-23T22:55:19.174Z,3.00
2023-05-23T22:57:47.099Z,3.30
2023-05-23T23:00:15.406Z,2.85
2023-05-23T23:02:45.946Z,3.03
2023-05-23T23:05:14.715Z,2.95
2023-05-23T23:07:42.943Z,2.87
2023-05-23T23:10:11.502Z,3.38
2023-05-23T23:12:39.400Z,3.38
2023-05-23T23:15:08.852Z,3.22
2023-05-23T23:17:37.383Z,3.10
2023-05-23T23:20:08.915Z,2.90
2023-05-23T23:22:37.450Z,3.08
2023-05-23T23:25:05.995Z,3.13
2023-05-23T23:27:33.911Z,4.20
2023-05-23T23:30:02.189Z,2.75
2023-05-23T23:32:30.883Z,3.08
2023-05-23T23:34:59.528Z,3.00
2023-05-23T23:37:29.021Z,3.33
2023-05-23T23:39:56.978Z,3.28
2023-05-23T23:42:24.813Z,3.10
2023-05-23T23:44:53.047Z,3.67
2023-05-23T23:47:20.983Z,3.05
2023-05-23T23:49:48.833Z,3.15
2023-05-23T23:52:17.943Z,3.83
2023-05-23T23:54:47.198Z,3.17
2023-05-23T23:57:15.186Z,3.65
2023-05-23T23:59:43.840Z,3.17
